createdAt,value
2022-09-12T00:02:28.631Z,12.70
2022-09-12T00:05:31.316Z,13.10
2022-09-12T00:08:32.952Z,12.60
2022-09-12T00:11:39.834Z,12.70
2022-09-12T00:14:41.605Z,12.20
2022-09-12T00:17:43.257Z,12.90
2022-09-12T00:20:46.500Z,12.10
2022-09-12T00:23:49.276Z,11.60
2022-09-12T00:26:51.402Z,11.80
2022-09-12T00:29:53.237Z,12.40
2022-09-12T00:32:55.112Z,12.30
2022-09-12T00:35:57.153Z,12.60
2022-09-12T00:38:59.402Z,12.80
2022-09-12T00:42:01.855Z,13.60
2022-09-12T00:45:03.965Z,12.60
2022-09-12T00:48:05.689Z,13.10
2022-09-12T00:51:07.582Z,12.70
2022-09-12T00:54:13.444Z,13.00
2022-09-12T00:57:16.735Z,12.30
2022-09-12T01:00:21.724Z,13.70
2022-09-12T01:03:24.332Z,13.90
2022-09-12T01:06:35.366Z,16.30
2022-09-12T01:09:38.133Z,15.60
2022-09-12T01:12:41.511Z,16.20
2022-09-12T01:15:43.249Z,17.50
2022-09-12T01:18:49.881Z,17.40
2022-09-12T01:22:28.831Z,17.10
2022-09-12T01:25:54.952Z,18.40
2022-09-12T01:29:12.034Z,20.10
2022-09-12T01:32:51.589Z,20.00
2022-09-12T01:36:36.655Z,22.00
2022-09-12T01:39:51.562Z,24.60
2022-09-12T01:43:05.386Z,24.80
2022-09-12T01:46:15.495Z,24.70
2022-09-12T01:49:25.034Z,23.40
2022-09-12T01:52:32.471Z,23.40
2022-09-12T01:55:37.767Z,25.00
2022-09-12T01:58:45.791Z,24.50
2022-09-12T02:02:17.887Z,22.40
2022-09-12T02:05:33.869Z,22.30
2022-09-12T02:08:45.596Z,20.30
2022-09-12T02:11:48.713Z,20.10
2022-09-12T02:14:55.414Z,18.90
2022-09-12T02:17:58.353Z,18.30
2022-09-12T02:21:01.336Z,19.30
2022-09-12T02:24:05.132Z,19.60
2022-09-12T02:27:19.978Z,23.50
2022-09-12T02:30:22.364Z,24.10
2022-09-12T02:33:27.961Z,24.20
2022-09-12T02:36:34.639Z,24.50
2022-09-12T02:39:37.305Z,22.10
2022-09-12T02:42:38.979Z,22.20
2022-09-12T02:45:41.101Z,20.60
2022-09-12T02:48:43.712Z,20.90
2022-09-12T02:51:46.530Z,21.00
2022-09-12T02:54:48.351Z,20.40
2022-09-12T02:57:50.040Z,19.60
2022-09-12T03:00:53.201Z,19.80
2022-09-12T03:04:09.943Z,19.00
2022-09-12T03:07:37.924Z,19.70
2022-09-12T03:11:06.537Z,19.60
2022-09-12T03:14:37.312Z,22.10
2022-09-12T03:18:17.531Z,22.50
2022-09-12T03:21:33.809Z,21.70
2022-09-12T03:24:38.969Z,20.60
2022-09-12T03:27:45.666Z,21.20
2022-09-12T03:30:49.670Z,21.90
2022-09-12T03:33:51.477Z,20.50
2022-09-12T03:36:57.264Z,21.40
2022-09-12T03:39:59.114Z,19.80
2022-09-12T03:43:01.454Z,23.80
2022-09-12T03:46:03.178Z,23.90
2022-09-12T03:49:06.100Z,23.20
2022-09-12T03:52:08.261Z,24.80
2022-09-12T03:55:09.941Z,24.80
2022-09-12T03:58:11.656Z,21.90
2022-09-12T04:01:17.395Z,22.10
2022-09-12T04:04:19.265Z,20.60
2022-09-12T04:07:21.141Z,21.00
2022-09-12T04:10:23.073Z,22.60
2022-09-12T04:13:25.906Z,24.40
2022-09-12T04:16:27.609Z,26.70
2022-09-12T04:19:29.400Z,28.80
2022-09-12T04:22:32.026Z,28.70
2022-09-12T04:25:34.014Z,32.40
2022-09-12T04:28:37.285Z,34.30
2022-09-12T04:31:39.542Z,36.00
2022-09-12T04:34:41.871Z,38.80
2022-09-12T04:37:44.346Z,38.20
2022-09-12T04:40:45.957Z,35.80
2022-09-12T04:43:48.543Z,34.10
2022-09-12T04:46:50.378Z,34.30
2022-09-12T04:49:52.454Z,34.70
2022-09-12T04:52:54.833Z,33.50
2022-09-12T04:55:56.490Z,34.70
2022-09-12T04:59:00.626Z,33.20
2022-09-12T05:02:02.768Z,32.60
2022-09-12T05:05:04.727Z,31.70
2022-09-12T05:08:06.485Z,33.10
2022-09-12T05:11:13.073Z,31.80
2022-09-12T05:14:14.961Z,32.50
2022-09-12T05:17:16.634Z,32.20
2022-09-12T05:20:18.461Z,28.80
2022-09-12T05:23:21.167Z,28.80
2022-09-12T05:26:23.575Z,29.40
2022-09-12T05:29:26.123Z,30.30
2022-09-12T05:32:31.873Z,28.90
2022-09-12T05:35:33.680Z,27.20
2022-09-12T05:38:35.634Z,24.90
2022-09-12T05:41:37.469Z,23.10
2022-09-12T05:44:39.193Z,20.60
2022-09-12T05:47:42.039Z,18.00
2022-09-12T05:50:43.910Z,16.70
2022-09-12T05:53:50.220Z,16.70
2022-09-12T05:56:51.944Z,15.00
2022-09-12T05:59:54.284Z,12.20
2022-09-12T06:02:56.283Z,8.80
2022-09-12T06:06:01.297Z,7.60
2022-09-12T06:09:04.622Z,7.70
2022-09-12T06:12:07.866Z,7.40
2022-09-12T06:15:11.180Z,6.70
2022-09-12T06:18:13.289Z,6.90
2022-09-12T06:21:15.983Z,6.90
2022-09-12T06:24:18.730Z,6.40
2022-09-12T06:27:20.715Z,6.40
2022-09-12T06:30:25.343Z,6.70
2022-09-12T06:33:27.284Z,6.60
2022-09-12T06:36:36.291Z,7.90
2022-09-12T06:39:38.540Z,6.70
2022-09-12T06:42:40.330Z,6.20
2022-09-12T06:45:49.452Z,6.20
2022-09-12T06:48:51.264Z,5.70
2022-09-12T06:51:52.993Z,6.10
2022-09-12T06:54:54.815Z,5.60
2022-09-12T06:57:56.710Z,5.40
2022-09-12T07:01:21.764Z,5.20
2022-09-12T07:04:23.614Z,5.00
2022-09-12T07:07:25.337Z,4.80
2022-09-12T07:10:27.653Z,4.90
2022-09-12T07:13:29.965Z,5.00
2022-09-12T07:16:31.913Z,4.80
2022-09-12T07:19:33.768Z,4.80
2022-09-12T07:22:35.492Z,5.00
2022-09-12T07:25:37.828Z,4.80
2022-09-12T07:28:40.195Z,4.20
2022-09-12T07:31:42.792Z,4.20
2022-09-12T07:34:45.547Z,4.90
2022-09-12T07:37:47.550Z,4.30
2022-09-12T07:40:49.878Z,4.50
2022-09-12T07:43:56.080Z,4.50
2022-09-12T07:46:58.062Z,4.10
2022-09-12T07:50:00.041Z,4.30
2022-09-12T07:53:03.360Z,3.90
2022-09-12T07:56:06.599Z,4.20
2022-09-12T07:59:09.188Z,4.10
2022-09-12T08:02:17.695Z,3.90
2022-09-12T08:05:21.144Z,3.70
2022-09-12T08:08:22.937Z,4.00
2022-09-12T08:11:28.063Z,3.90
2022-09-12T08:14:30.324Z,4.10
2022-09-12T08:17:32.057Z,4.10
2022-09-12T08:20:33.865Z,4.40
2022-09-12T08:23:35.803Z,4.20
2022-09-12T08:26:37.767Z,4.20
2022-09-12T08:29:39.550Z,4.20
2022-09-12T08:32:41.312Z,4.00
2022-09-12T08:35:43.147Z,4.00
2022-09-12T08:38:47.178Z,4.40
2022-09-12T08:41:57.493Z,4.00
2022-09-12T08:45:17.825Z,4.20
2022-09-12T08:48:20.014Z,4.00
2022-09-12T08:51:22.240Z,3.90
2022-09-12T08:54:27.640Z,4.10
2022-09-12T08:57:29.753Z,4.10
2022-09-12T09:00:59.467Z,3.90
2022-09-12T09:04:25.778Z,4.10
2022-09-12T09:07:51.909Z,3.90
2022-09-12T09:11:05.258Z,3.50
2022-09-12T09:14:36.500Z,3.60
2022-09-12T09:17:40.478Z,3.50
2022-09-12T09:20:49.870Z,3.50
2022-09-12T09:23:57.448Z,3.30
2022-09-12T09:27:29.801Z,2.90
2022-09-12T09:30:35.944Z,3.30
2022-09-12T09:33:38.008Z,3.00
2022-09-12T09:36:49.910Z,3.00
2022-09-12T09:40:19.603Z,3.10
2022-09-12T09:43:23.937Z,3.60
2022-09-12T09:46:27.179Z,4.60
2022-09-12T09:49:32.198Z,3.40
2022-09-12T09:52:36.029Z,2.80
2022-09-12T09:55:43.947Z,4.60
2022-09-12T09:58:45.840Z,5.50
2022-09-12T10:01:52.923Z,3.10
2022-09-12T10:04:58.844Z,3.10
2022-09-12T10:08:00.926Z,3.10
2022-09-12T10:11:15.232Z,3.20
2022-09-12T10:14:38.850Z,3.00
2022-09-12T10:17:49.430Z,3.10
2022-09-12T10:20:51.492Z,3.00
2022-09-12T10:24:01.335Z,2.80
2022-09-12T10:27:12.634Z,3.00
2022-09-12T10:30:14.760Z,3.10
2022-09-12T10:33:17.150Z,2.90
2022-09-12T10:36:20.170Z,2.70
2022-09-12T10:39:22.577Z,2.80
2022-09-12T10:42:53.005Z,4.70
2022-09-12T10:46:01.157Z,2.80
2022-09-12T10:49:28.948Z,3.70
2022-09-12T10:52:31.003Z,3.60
2022-09-12T10:55:34.849Z,3.50
2022-09-12T10:58:56.150Z,3.00
2022-09-12T11:02:05.455Z,2.80
2022-09-12T11:05:38.703Z,2.90
2022-09-12T11:08:55.769Z,2.90
2022-09-12T11:12:10.532Z,2.90
2022-09-12T11:15:31.089Z,2.40
2022-09-12T11:18:45.271Z,2.40
2022-09-12T11:22:10.865Z,2.70
2022-09-12T11:25:26.182Z,2.90
2022-09-12T11:28:49.192Z,2.80
2022-09-12T11:32:25.209Z,2.70
2022-09-12T11:35:32.604Z,2.90
2022-09-12T11:38:52.746Z,2.80
2022-09-12T11:42:00.421Z,2.80
2022-09-12T11:45:24.771Z,3.00
2022-09-12T11:48:52.394Z,2.90
2022-09-12T11:51:56.455Z,2.60
2022-09-12T11:55:05.408Z,3.30
2022-09-12T11:58:08.853Z,3.00
2022-09-12T12:01:23.272Z,3.10
2022-09-12T12:04:30.258Z,2.90
2022-09-12T12:07:44.773Z,2.90
2022-09-12T12:11:00.042Z,3.00
2022-09-12T12:14:03.274Z,3.10
2022-09-12T12:17:05.335Z,2.80
2022-09-12T12:20:16.360Z,2.90
2022-09-12T12:23:25.631Z,3.10
2022-09-12T12:26:39.859Z,3.00
2022-09-12T12:29:44.459Z,3.10
2022-09-12T12:32:46.635Z,3.20
2022-09-12T12:36:00.586Z,3.30
2022-09-12T12:39:33.350Z,3.10
2022-09-12T12:42:35.392Z,3.10
2022-09-12T12:45:37.786Z,3.00
2022-09-12T12:49:21.785Z,3.20
2022-09-12T12:52:25.517Z,2.90
2022-09-12T12:55:46.508Z,3.40
2022-09-12T12:58:48.291Z,3.30
2022-09-12T13:01:55.643Z,3.30
2022-09-12T13:04:59.782Z,3.20
2022-09-12T13:08:10.554Z,2.80
2022-09-12T13:14:42.825Z,3.40
2022-09-12T13:17:45.053Z,3.10
2022-09-12T13:20:54.853Z,3.20
2022-09-12T13:24:14.169Z,3.10
2022-09-12T13:27:25.493Z,3.40
2022-09-12T13:30:33.161Z,3.40
2022-09-12T13:33:43.959Z,3.10
2022-09-12T13:37:15.346Z,3.30
2022-09-12T13:40:54.917Z,3.00
2022-09-12T13:43:57.259Z,3.10
2022-09-12T13:47:01.113Z,3.30
2022-09-12T13:50:04.787Z,3.50
2022-09-12T13:53:12.752Z,3.20
2022-09-12T13:56:18.962Z,3.40
2022-09-12T13:59:20.823Z,3.60
2022-09-12T14:02:25.506Z,3.10
2022-09-12T14:05:27.307Z,3.10
2022-09-12T14:08:29.922Z,3.20
2022-09-12T14:11:33.895Z,3.10
2022-09-12T14:14:37.779Z,2.90
2022-09-12T14:17:39.712Z,3.40
2022-09-12T14:20:41.982Z,3.00
2022-09-12T14:23:45.192Z,3.10
2022-09-12T14:26:47.979Z,3.20
2022-09-12T14:29:53.539Z,3.10
2022-09-12T14:33:04.057Z,3.70
2022-09-12T14:36:12.116Z,3.20
2022-09-12T14:39:28.181Z,3.50
2022-09-12T14:42:31.358Z,3.10
2022-09-12T14:45:33.163Z,3.10
2022-09-12T14:48:36.806Z,3.20
2022-09-12T14:51:41.249Z,2.90
2022-09-12T14:54:44.587Z,3.40
2022-09-12T14:57:46.640Z,3.20
2022-09-12T15:01:11.460Z,3.20
2022-09-12T15:04:43.201Z,3.10
2022-09-12T15:07:50.811Z,3.00
2022-09-12T15:10:52.918Z,3.30
2022-09-12T15:13:54.707Z,3.10
2022-09-12T15:16:56.883Z,3.10
2022-09-12T15:19:58.722Z,3.20
2022-09-12T15:23:00.632Z,2.80
2022-09-12T15:26:03.313Z,2.90
2022-09-12T15:29:05.101Z,2.90
2022-09-12T15:32:06.971Z,3.20
2022-09-12T15:35:20.925Z,3.10
2022-09-12T15:38:26.541Z,3.30
2022-09-12T15:41:36.945Z,3.00
2022-09-12T15:44:39.921Z,3.60
2022-09-12T15:47:41.652Z,3.40
2022-09-12T15:50:43.361Z,2.80
2022-09-12T15:53:46.097Z,3.50
2022-09-12T15:56:47.729Z,3.50
2022-09-12T15:59:49.358Z,3.20
2022-09-12T16:02:52.805Z,3.20
2022-09-12T16:05:56.652Z,3.20
2022-09-12T16:08:58.420Z,3.40
2022-09-12T16:12:00.268Z,3.40
2022-09-12T16:15:02.680Z,3.40
2022-09-12T16:18:04.402Z,3.30
2022-09-12T16:21:08.208Z,3.40
2022-09-12T16:24:13.176Z,3.30
2022-09-12T16:27:14.967Z,3.30
2022-09-12T16:30:16.686Z,3.20
2022-09-12T16:33:18.637Z,3.20
2022-09-12T16:36:21.612Z,3.50
2022-09-12T16:39:23.867Z,3.00
2022-09-12T16:42:25.625Z,3.40
2022-09-12T16:45:27.248Z,3.40
2022-09-12T16:48:29.705Z,3.50
2022-09-12T16:51:33.873Z,3.40
2022-09-12T16:54:36.107Z,3.50
2022-09-12T16:57:37.921Z,3.50
2022-09-12T17:00:39.859Z,3.90
2022-09-12T17:03:41.886Z,3.80
2022-09-12T17:06:44.226Z,4.60
2022-09-12T17:09:48.053Z,5.00
2022-09-12T17:12:50.300Z,4.00
2022-09-12T17:15:52.093Z,4.10
2022-09-12T17:18:54.322Z,3.80
2022-09-12T17:21:57.170Z,4.00
2022-09-12T17:24:59.010Z,3.80
2022-09-12T17:28:00.677Z,4.50
2022-09-12T17:31:08.887Z,4.10
2022-09-12T17:34:14.630Z,4.30
2022-09-12T17:37:17.733Z,4.20
2022-09-12T17:40:19.897Z,4.10
2022-09-12T17:43:21.753Z,3.90
2022-09-12T17:46:26.740Z,4.00
2022-09-12T17:49:28.622Z,4.20
2022-09-12T17:52:30.992Z,5.30
2022-09-12T17:55:36.933Z,4.30
2022-09-12T17:58:39.135Z,4.70
2022-09-12T18:01:59.807Z,4.30
2022-09-12T18:05:05.353Z,4.20
2022-09-12T18:08:07.162Z,5.30
2022-09-12T18:11:08.925Z,5.70
2022-09-12T18:14:14.009Z,6.80
2022-09-12T18:17:17.108Z,7.80
2022-09-12T18:20:19.034Z,7.30
2022-09-12T18:23:20.894Z,6.90
2022-09-12T18:26:22.802Z,6.10
2022-09-12T18:29:25.603Z,6.60
2022-09-12T18:32:27.677Z,6.70
2022-09-12T18:35:29.374Z,9.60
2022-09-12T18:38:31.886Z,18.00
2022-09-12T18:41:34.037Z,16.10
2022-09-12T18:44:36.016Z,14.30
2022-09-12T18:47:37.936Z,11.10
2022-09-12T18:50:39.744Z,10.60
2022-09-12T18:53:42.738Z,8.50
2022-09-12T18:56:45.686Z,9.60
2022-09-12T18:59:47.850Z,9.50
2022-09-12T19:02:49.486Z,9.20
2022-09-12T19:05:51.320Z,8.50
2022-09-12T19:08:54.255Z,8.20
2022-09-12T19:11:56.168Z,8.70
2022-09-12T19:14:58.214Z,7.30
2022-09-12T19:18:00.219Z,7.00
2022-09-12T19:21:02.256Z,6.50
2022-09-12T19:24:06.527Z,7.50
2022-09-12T19:27:08.315Z,6.30
2022-09-12T19:30:10.951Z,7.70
2022-09-12T19:33:12.773Z,7.50
2022-09-12T19:36:43.305Z,7.40
2022-09-12T19:39:39.135Z,6.60
2022-09-12T19:42:41.456Z,7.60
2022-09-12T19:45:49.552Z,6.80
2022-09-12T19:49:05.615Z,8.80
2022-09-12T19:52:08.400Z,8.40
2022-09-12T19:55:10.893Z,7.30
2022-09-12T19:58:13.663Z,6.80
2022-09-12T20:01:20.228Z,9.20
2022-09-12T20:04:21.892Z,10.50
2022-09-12T20:07:23.735Z,9.20
2022-09-12T20:10:27.916Z,8.40
2022-09-12T20:13:29.613Z,8.40
2022-09-12T20:16:33.614Z,38.10
2022-09-12T20:19:37.966Z,103.80
2022-09-12T20:22:40.283Z,148.10
2022-09-12T20:25:44.572Z,54.10
2022-09-12T20:28:46.489Z,15.30
2022-09-12T20:31:48.313Z,28.10
2022-09-12T20:34:49.980Z,34.90
2022-09-12T20:40:53.113Z,17.80
2022-09-12T20:43:56.521Z,15.10
2022-09-12T20:46:58.309Z,11.60
2022-09-12T20:50:00.134Z,151.50
2022-09-12T20:53:01.943Z,89.50
2022-09-12T20:56:05.438Z,103.90
2022-09-12T20:59:07.685Z,72.80
2022-09-12T21:02:13.082Z,40.70
2022-09-12T21:05:14.712Z,19.30
2022-09-12T21:08:16.607Z,11.90
2022-09-12T21:11:19.966Z,10.20
2022-09-12T21:14:21.575Z,9.90
2022-09-12T21:20:24.932Z,9.50
2022-09-12T21:23:27.515Z,9.30
2022-09-12T21:26:30.049Z,8.70
2022-09-12T21:29:31.813Z,8.90
2022-09-12T21:32:36.046Z,8.60
2022-09-12T21:35:37.929Z,7.40
2022-09-12T21:38:39.578Z,6.60
2022-09-12T21:41:41.274Z,6.30
2022-09-12T21:47:44.872Z,7.30
2022-09-12T21:50:50.392Z,7.10
2022-09-12T21:53:54.487Z,8.10
2022-09-12T21:56:56.423Z,8.20
2022-09-12T22:03:02.710Z,10.50
2022-09-12T22:06:07.467Z,9.10
2022-09-12T22:09:09.825Z,8.50
2022-09-12T22:12:11.630Z,7.60
2022-09-12T22:15:38.921Z,8.30
2022-09-12T22:18:39.384Z,8.00
2022-09-12T22:22:01.042Z,8.90
2022-09-12T22:25:02.685Z,9.40
2022-09-12T22:28:04.724Z,7.90
2022-09-12T22:34:08.678Z,7.70
2022-09-12T22:37:13.192Z,8.00
2022-09-12T22:40:15.883Z,7.80
2022-09-12T22:43:17.829Z,8.00
2022-09-12T22:46:19.730Z,8.10
2022-09-12T22:49:21.499Z,7.50
2022-09-12T22:52:24.798Z,9.70
2022-09-12T22:55:26.556Z,9.50
2022-09-12T22:58:28.424Z,10.50
2022-09-12T23:01:31.925Z,12.20
2022-09-12T23:04:33.665Z,12.60
2022-09-12T23:07:55.640Z,13.70
2022-09-12T23:11:01.737Z,13.10
2022-09-12T23:14:08.987Z,13.00
2022-09-12T23:17:10.728Z,14.40
2022-09-12T23:20:12.727Z,13.00
2022-09-12T23:23:14.479Z,12.70
2022-09-12T23:26:28.291Z,12.00
2022-09-12T23:29:30.182Z,12.40
2022-09-12T23:32:34.373Z,12.20
2022-09-12T23:35:36.404Z,12.30
2022-09-12T23:38:38.240Z,14.00
2022-09-12T23:41:41.745Z,13.40
2022-09-12T23:44:43.769Z,15.80
2022-09-12T23:47:45.368Z,15.70
2022-09-12T23:50:48.800Z,17.10
2022-09-12T23:53:50.579Z,17.20
2022-09-12T23:56:52.550Z,18.00
2022-09-12T23:59:54.154Z,19.70
